Time,TemperatureF,DewpointF,PressureIn,WindDirection,WindDirectionDegrees,WindSpeedMPH,WindSpeedGustMPH,Humidity,HourlyPrecipIn,Conditions,Clouds,dailyrainin,SoftwareType,DateUTC
2013-02-15 00:00:00,31.9,28.2,27.97,SSW,198,3.0,9.0,86,0.00,,,0.51,WUHU216DAVISWMX,2013-02-15 05:00:00,
2013-02-15 00:05:00,31.8,28.1,27.97,SSW,208,0.0,7.0,86,0.00,,,0.51,WUHU216DAVISWMX,2013-02-15 05:05:00,
2013-02-15 00:10:00,31.8,28.3,27.97,SSW,208,0.0,7.0,87,0.00,,,0.51,WUHU216DAVISWMX,2013-02-15 05:10:00,
2013-02-15 00:15:00,31.8,28.3,27.97,SSW,208,0.0,0.0,87,0.00,,,0.51,WUHU216DAVISWMX,2013-02-15 05:15:00,
2013-02-15 00:20:00,31.8,28.1,27.98,SSW,208,0.0,0.0,86,0.00,,,0.51,WUHU216DAVISWMX,2013-02-15 05:20:00,
2013-02-15 00:25:00,31.8,28.3,27.98,SSW,208,0.0,0.0,87,0.00,,,0.51,WUHU216DAVISWMX,2013-02-15 05:25:00,
2013-02-15 00:30:00,31.8,28.3,27.98,SSW,208,0.0,0.0,87,0.00,,,0.51,WUHU216DAVISWMX,2013-02-15 05:30:00,
2013-02-15 00:34:00,31.8,28.3,27.97,SSW,208,0.0,0.0,87,0.00,,,0.51,WUHU216DAVISWMX,2013-02-15 05:34:00,
2013-02-15 00:35:00,31.8,28.3,27.97,SSW,208,0.0,0.0,87,0.00,,,0.51,WUHU216DAVISWMX,2013-02-15 05:35:00,
2013-02-15 00:40:00,31.8,28.3,27.97,SSW,208,0.0,0.0,87,0.00,,,0.51,WUHU216DAVISWMX,2013-02-15 05:40:00,
2013-02-15 01:10:00,30.8,28.4,27.97,SSW,197,3.0,3.0,91,0.00,,,0.51,WUHU216DAVISWMX,2013-02-15 06:10:00,
2013-02-15 01:15:00,31.0,28.6,27.97,South,183,0.0,5.0,91,0.00,,,0.51,WUHU216DAVISWMX,2013-02-15 06:15:00,
2013-02-15 01:20:00,31.1,28.7,27.97,South,184,2.0,5.0,91,0.00,,,0.51,WUHU216DAVISWMX,2013-02-15 06:20:00,
2013-02-15 01:25:00,31.4,29.0,27.97,South,191,0.0,5.0,91,0.00,,,0.51,WUHU216DAVISWMX,2013-02-15 06:25:00,
2013-02-15 01:30:00,31.4,28.8,27.97,South,191,0.0,5.0,90,0.00,,,0.51,WUHU216DAVISWMX,2013-02-15 06:30:00,
2013-02-15 01:35:00,31.5,28.6,27.97,SSW,198,0.0,6.0,89,0.00,,,0.51,WUHU216DAVISWMX,2013-02-15 06:35:00,
2013-02-15 01:40:00,31.7,28.8,27.97,SSW,199,0.0,6.0,89,0.00,,,0.51,WUHU216DAVISWMX,2013-02-15 06:40:00,
2013-02-15 01:45:00,31.7,28.5,27.97,SSW,199,0.0,6.0,88,0.00,,,0.51,WUHU216DAVISWMX,2013-02-15 06:45:00,
2013-02-15 01:50:00,31.7,28.8,27.97,SSW,199,0.0,0.0,89,0.00,,,0.51,WUHU216DAVISWMX,2013-02-15 06:50:00,
2013-02-15 01:55:00,31.7,28.8,27.97,SSW,199,0.0,0.0,89,0.00,,,0.51,WUHU216DAVISWMX,2013-02-15 06:55:00,
2013-02-15 02:00:00,31.7,28.8,27.97,SSW,199,0.0,0.0,89,0.00,,,0.51,WUHU216DAVISWMX,2013-02-15 07:00:00,
2013-02-15 02:05:00,31.7,28.8,27.97,SSW,199,0.0,0.0,89,0.00,,,0.51,WUHU216DAVISWMX,2013-02-15 07:05:00,
2013-02-15 02:07:00,31.7,28.8,27.97,SSW,199,0.0,0.0,89,0.00,,,0.51,WUHU216DAVISWMX,2013-02-15 07:07:00,
2013-02-15 02:10:00,31.7,28.8,27.97,SSW,199,0.0,0.0,89,0.00,,,0.51,WUHU216DAVISWMX,2013-02-15 07:10:00,
2013-02-15 02:15:00,31.7,28.8,27.97,SSW,199,0.0,0.0,89,0.00,,,0.51,WUHU216DAVISWMX,2013-02-15 07:15:00,
2013-02-15 02:36:00,31.9,27.3,27.98,SSW,209,0.0,0.0,83,0.00,,,0.51,WUHU216DAVISWMX,2013-02-15 07:36:00,
2013-02-15 02:41:00,31.9,27.3,27.98,SSW,197,0.0,6.0,83,0.00,,,0.51,WUHU216DAVISWMX,2013-02-15 07:41:00,
2013-02-15 02:46:00,31.7,27.1,27.98,SSW,197,0.0,6.0,83,0.00,,,0.51,WUHU216DAVISWMX,2013-02-15 07:46:00,
2013-02-15 02:51:00,31.4,26.8,27.98,SSW,197,0.0,3.0,83,0.00,,,0.51,WUHU216DAVISWMX,2013-02-15 07:51:00,
2013-02-15 02:56:00,31.4,27.1,27.99,SSW,197,0.0,4.0,84,0.00,,,0.51,WUHU216DAVISWMX,2013-02-15 07:56:00,
2013-02-15 03:01:00,31.8,27.5,27.99,SSW,198,0.0,4.0,84,0.00,,,0.51,WUHU216DAVISWMX,2013-02-15 08:01:00,
2013-02-15 03:06:00,32.3,28.3,27.99,SSW,204,2.0,6.0,85,0.00,,,0.51,WUHU216DAVISWMX,2013-02-15 08:06:00,
2013-02-15 03:11:00,32.7,28.4,27.99,SSW,213,4.0,7.0,84,0.00,,,0.51,WUHU216DAVISWMX,2013-02-15 08:11:00,
2013-02-15 03:16:00,33.2,28.6,27.99,SW,217,0.0,7.0,83,0.00,,,0.51,WUHU216DAVISWMX,2013-02-15 08:16:00,
2013-02-15 03:21:00,33.3,28.7,27.99,SSW,208,6.0,10.0,83,0.00,,,0.51,WUHU216DAVISWMX,2013-02-15 08:21:00,
2013-02-15 03:26:00,33.2,28.6,27.99,SSW,210,6.0,10.0,83,0.00,,,0.51,WUHU216DAVISWMX,2013-02-15 08:26:00,
2013-02-15 03:31:00,33.0,28.7,27.99,SSW,210,9.0,10.0,84,0.00,,,0.51,WUHU216DAVISWMX,2013-02-15 08:31:00,
2013-02-15 03:36:00,33.0,28.7,27.99,SSW,208,0.0,9.0,84,0.00,,,0.51,WUHU216DAVISWMX,2013-02-15 08:36:00,
2013-02-15 03:41:00,33.1,28.8,28.00,SSW,208,0.0,5.0,84,0.00,,,0.51,WUHU216DAVISWMX,2013-02-15 08:41:00,
2013-02-15 03:46:00,33.0,28.7,28.00,SSW,208,0.0,0.0,84,0.00,,,0.51,WUHU216DAVISWMX,2013-02-15 08:46:00,
2013-02-15 03:51:00,33.1,28.8,28.00,SSW,208,0.0,0.0,84,0.00,,,0.51,WUHU216DAVISWMX,2013-02-15 08:51:00,
2013-02-15 03:56:00,33.1,28.5,28.00,SSW,208,0.0,0.0,83,0.00,,,0.51,WUHU216DAVISWMX,2013-02-15 08:56:00,
2013-02-15 04:01:00,33.0,28.7,28.00,SSW,208,0.0,0.0,84,0.00,,,0.51,WUHU216DAVISWMX,2013-02-15 09:01:00,
2013-02-15 04:02:00,33.0,28.4,28.00,SSW,208,0.0,0.0,83,0.00,,,0.51,WUHU216DAVISWMX,2013-02-15 09:02:00,
2013-02-15 04:06:00,33.0,28.4,28.00,SSW,208,0.0,0.0,83,0.00,,,0.51,WUHU216DAVISWMX,2013-02-15 09:06:00,
2013-02-15 04:11:00,33.0,28.4,28.00,SSW,208,0.0,0.0,83,0.00,,,0.51,WUHU216DAVISWMX,2013-02-15 09:11:00,
2013-02-15 04:35:00,32.1,27.8,28.01,SW,215,5.0,5.0,84,0.00,,,0.51,WUHU216DAVISWMX,2013-02-15 09:35:00,
2013-02-15 04:40:00,32.2,27.6,28.01,SSW,210,9.0,12.0,83,0.00,,,0.51,WUHU216DAVISWMX,2013-02-15 09:40:00,
2013-02-15 04:45:00,31.9,27.0,28.01,SW,216,5.0,12.0,82,0.00,,,0.51,WUHU216DAVISWMX,2013-02-15 09:45:00,
2013-02-15 04:50:00,31.9,27.0,28.01,SSW,202,0.0,11.0,82,0.00,,,0.51,WUHU216DAVISWMX,2013-02-15 09:50:00,
2013-02-15 04:55:00,32.0,27.1,28.01,SSW,202,0.0,10.0,82,0.00,,,0.51,WUHU216DAVISWMX,2013-02-15 09:55:00,
2013-02-15 05:00:00,32.0,27.1,28.01,SSW,202,0.0,0.0,82,0.00,,,0.51,WUHU216DAVISWMX,2013-02-15 10:00:00,
2013-02-15 05:05:00,31.9,27.0,28.01,SSW,202,0.0,0.0,82,0.00,,,0.51,WUHU216DAVISWMX,2013-02-15 10:05:00,
2013-02-15 05:10:00,31.9,27.0,28.01,SSW,202,0.0,0.0,82,0.00,,,0.51,WUHU216DAVISWMX,2013-02-15 10:10:00,
2013-02-15 05:15:00,32.0,27.1,28.01,SSW,202,0.0,0.0,82,0.00,,,0.51,WUHU216DAVISWMX,2013-02-15 10:15:00,
2013-02-15 05:20:00,32.0,27.1,28.01,SSW,202,0.0,0.0,82,0.00,,,0.51,WUHU216DAVISWMX,2013-02-15 10:20:00,
2013-02-15 05:25:00,31.9,27.0,28.02,SSW,202,0.0,0.0,82,0.00,,,0.51,WUHU216DAVISWMX,2013-02-15 10:25:00,
2013-02-15 05:30:00,31.9,27.0,28.02,SSW,202,0.0,0.0,82,0.00,,,0.51,WUHU216DAVISWMX,2013-02-15 10:30:00,
2013-02-15 05:43:00,31.1,25.1,28.01,SW,220,7.0,7.0,78,0.00,,,0.51,WUHU216DAVISWMX,2013-02-15 10:43:00,
2013-02-15 05:48:00,31.2,25.2,28.01,SSW,210,0.0,12.0,78,0.00,,,0.51,WUHU216DAVISWMX,2013-02-15 10:48:00,
2013-02-15 05:53:00,31.0,25.3,28.02,SSW,209,3.0,12.0,79,0.00,,,0.51,WUHU216DAVISWMX,2013-02-15 10:53:00,
2013-02-15 05:58:00,30.8,25.1,28.01,SSW,208,0.0,5.0,79,0.00,,,0.51,WUHU216DAVISWMX,2013-02-15 10:58:00,
2013-02-15 06:03:00,30.7,25.3,28.02,SSW,207,3.0,5.0,80,0.00,,,0.51,WUHU216DAVISWMX,2013-02-15 11:03:00,
2013-02-15 06:08:00,30.7,25.3,28.02,SSW,211,2.0,6.0,80,0.00,,,0.51,WUHU216DAVISWMX,2013-02-15 11:08:00,
2013-02-15 06:13:00,30.7,25.6,28.02,SW,215,0.0,6.0,81,0.00,,,0.51,WUHU216DAVISWMX,2013-02-15 11:13:00,
2013-02-15 06:18:00,30.8,25.7,28.02,SW,216,0.0,6.0,81,0.00,,,0.51,WUHU216DAVISWMX,2013-02-15 11:18:00,
2013-02-15 06:23:00,30.6,25.8,28.02,SW,216,0.0,0.0,82,0.00,,,0.51,WUHU216DAVISWMX,2013-02-15 11:23:00,
2013-02-15 06:28:00,30.6,25.8,28.03,SW,216,0.0,4.0,82,0.00,,,0.51,WUHU216DAVISWMX,2013-02-15 11:28:00,
2013-02-15 06:33:00,30.6,25.8,28.03,SW,216,0.0,4.0,82,0.00,,,0.51,WUHU216DAVISWMX,2013-02-15 11:33:00,
2013-02-15 06:38:00,30.6,25.8,28.03,SW,216,0.0,0.0,82,0.00,,,0.51,WUHU216DAVISWMX,2013-02-15 11:38:00,
2013-02-15 06:43:00,30.6,25.8,28.03,SW,216,0.0,0.0,82,0.00,,,0.51,WUHU216DAVISWMX,2013-02-15 11:43:00,
2013-02-15 06:48:00,30.6,25.8,28.04,SW,216,0.0,0.0,82,0.00,,,0.51,WUHU216DAVISWMX,2013-02-15 11:48:00,
2013-02-15 06:53:00,30.6,25.8,28.04,SW,216,0.0,0.0,82,0.00,,,0.51,WUHU216DAVISWMX,2013-02-15 11:53:00,
2013-02-15 06:55:00,30.6,25.8,28.04,SW,224,0.0,0.0,82,0.00,,,0.51,WUHU216DAVISWMX,2013-02-15 11:55:00,
2013-02-15 06:58:00,30.6,25.8,28.04,SW,224,0.0,0.0,82,0.00,,,0.51,WUHU216DAVISWMX,2013-02-15 11:58:00,
2013-02-15 07:03:00,30.6,25.8,28.04,SW,224,0.0,0.0,82,0.00,,,0.51,WUHU216DAVISWMX,2013-02-15 12:03:00,
2013-02-15 07:30:00,29.2,22.9,28.05,SW,228,7.0,7.0,77,0.00,,,0.51,WUHU216DAVISWMX,2013-02-15 12:30:00,
2013-02-15 07:35:00,29.2,22.6,28.05,SW,225,2.0,10.0,76,0.00,,,0.51,WUHU216DAVISWMX,2013-02-15 12:35:00,
2013-02-15 07:40:00,29.1,22.5,28.05,SW,215,3.0,10.0,76,0.00,,,0.51,WUHU216DAVISWMX,2013-02-15 12:40:00,
2013-02-15 07:45:00,29.1,22.5,28.05,SW,216,0.0,7.0,76,0.00,,,0.51,WUHU216DAVISWMX,2013-02-15 12:45:00,
2013-02-15 07:50:00,29.0,22.4,28.05,SW,216,0.0,4.0,76,0.00,,,0.51,WUHU216DAVISWMX,2013-02-15 12:50:00,
2013-02-15 07:55:00,29.0,22.4,28.05,SW,216,0.0,0.0,76,0.00,,,0.51,WUHU216DAVISWMX,2013-02-15 12:55:00,
2013-02-15 08:00:00,29.1,22.5,28.06,SW,216,0.0,0.0,76,0.00,,,0.51,WUHU216DAVISWMX,2013-02-15 13:00:00,
2013-02-15 08:05:00,29.0,22.4,28.06,SW,216,0.0,0.0,76,0.00,,,0.51,WUHU216DAVISWMX,2013-02-15 13:05:00,
2013-02-15 08:09:00,29.0,22.4,28.06,SW,216,0.0,0.0,76,0.00,,,0.51,WUHU216DAVISWMX,2013-02-15 13:09:00,
2013-02-15 08:10:00,29.0,22.7,28.06,SW,216,0.0,0.0,77,0.00,,,0.51,WUHU216DAVISWMX,2013-02-15 13:10:00,
2013-02-15 08:15:00,29.0,22.4,28.06,SW,216,0.0,0.0,76,0.00,,,0.51,WUHU216DAVISWMX,2013-02-15 13:15:00,
2013-02-15 09:01:00,29.9,22.3,28.07,SSW,207,9.0,9.0,73,0.00,,,0.51,WUHU216DAVISWMX,2013-02-15 14:01:00,
2013-02-15 09:06:00,30.0,22.1,28.06,SSW,211,0.0,10.0,72,0.00,,,0.51,WUHU216DAVISWMX,2013-02-15 14:06:00,
2013-02-15 09:11:00,30.0,22.1,28.07,SSW,211,0.0,10.0,72,0.00,,,0.51,WUHU216DAVISWMX,2013-02-15 14:11:00,
2013-02-15 09:16:00,30.0,22.1,28.07,SSW,211,0.0,0.0,72,0.00,,,0.51,WUHU216DAVISWMX,2013-02-15 14:16:00,
2013-02-15 09:21:00,30.2,22.3,28.07,SSW,210,0.0,0.0,72,0.00,,,0.51,WUHU216DAVISWMX,2013-02-15 14:21:00,
2013-02-15 09:26:00,30.2,22.3,28.07,SSW,210,0.0,0.0,72,0.00,,,0.51,WUHU216DAVISWMX,2013-02-15 14:26:00,
2013-02-15 09:31:00,30.2,22.3,28.07,SSW,210,0.0,0.0,72,0.00,,,0.51,WUHU216DAVISWMX,2013-02-15 14:31:00,
2013-02-15 09:33:00,30.2,22.3,28.07,SSW,210,0.0,0.0,72,0.00,,,0.51,WUHU216DAVISWMX,2013-02-15 14:33:00,
2013-02-15 09:36:00,30.2,22.3,28.07,SSW,210,0.0,0.0,72,0.00,,,0.51,WUHU216DAVISWMX,2013-02-15 14:36:00,
2013-02-15 09:41:00,30.2,22.3,28.07,SSW,210,0.0,0.0,72,0.00,,,0.51,WUHU216DAVISWMX,2013-02-15 14:41:00,
2013-02-15 10:11:00,32.8,24.2,28.06,SSW,213,4.0,4.0,70,0.00,,,0.51,WUHU216DAVISWMX,2013-02-15 15:11:00,
2013-02-15 10:16:00,32.9,24.2,28.06,SW,220,0.0,12.0,70,0.00,,,0.51,WUHU216DAVISWMX,2013-02-15 15:16:00,
2013-02-15 10:21:00,33.2,24.9,28.06,SW,221,0.0,12.0,71,0.00,,,0.51,WUHU216DAVISWMX,2013-02-15 15:21:00,
2013-02-15 10:26:00,33.2,24.5,28.06,SSW,205,7.0,12.0,70,0.00,,,0.51,WUHU216DAVISWMX,2013-02-15 15:26:00,
2013-02-15 10:31:00,33.2,24.5,28.07,SW,215,0.0,12.0,70,0.00,,,0.51,WUHU216DAVISWMX,2013-02-15 15:31:00,
2013-02-15 10:36:00,33.2,24.5,28.06,SW,215,0.0,7.0,70,0.00,,,0.51,WUHU216DAVISWMX,2013-02-15 15:36:00,
2013-02-15 10:41:00,33.2,24.5,28.06,SW,215,0.0,0.0,70,0.00,,,0.51,WUHU216DAVISWMX,2013-02-15 15:41:00,
2013-02-15 10:46:00,33.2,24.5,28.06,SW,215,0.0,0.0,70,0.00,,,0.51,WUHU216DAVISWMX,2013-02-15 15:46:00,
2013-02-15 10:51:00,33.2,24.5,28.06,SW,215,0.0,0.0,70,0.00,,,0.51,WUHU216DAVISWMX,2013-02-15 15:51:00,
2013-02-15 10:56:00,33.2,24.5,28.06,SW,215,0.0,0.0,70,0.00,,,0.51,WUHU216DAVISWMX,2013-02-15 15:56:00,
2013-02-15 10:58:00,33.2,24.5,28.07,SW,215,0.0,0.0,70,0.00,,,0.51,WUHU216DAVISWMX,2013-02-15 15:58:00,
2013-02-15 11:01:00,33.2,24.5,28.07,SW,215,0.0,0.0,70,0.00,,,0.51,WUHU216DAVISWMX,2013-02-15 16:01:00,
2013-02-15 11:06:00,33.2,24.5,28.07,SW,215,0.0,0.0,70,0.00,,,0.51,WUHU216DAVISWMX,2013-02-15 16:06:00,
2013-02-15 11:35:00,33.6,23.5,28.05,WSW,243,7.0,7.0,66,0.00,,,0.51,WUHU216DAVISWMX,2013-02-15 16:35:00,
2013-02-15 11:40:00,34.4,23.9,28.06,SSW,210,5.0,13.0,65,0.00,,,0.51,WUHU216DAVISWMX,2013-02-15 16:40:00,
2013-02-15 11:45:00,35.1,24.6,28.06,SSW,207,12.0,14.0,65,0.00,,,0.51,WUHU216DAVISWMX,2013-02-15 16:45:00,
2013-02-15 11:50:00,35.2,24.3,28.06,SSW,213,0.0,14.0,64,0.00,,,0.51,WUHU216DAVISWMX,2013-02-15 16:50:00,
2013-02-15 11:55:00,35.2,23.9,28.05,SSW,213,0.0,12.0,63,0.00,,,0.51,WUHU216DAVISWMX,2013-02-15 16:55:00,
2013-02-15 12:00:00,35.2,24.3,28.05,SSW,213,0.0,0.0,64,0.00,,,0.51,WUHU216DAVISWMX,2013-02-15 17:00:00,
2013-02-15 12:05:00,35.2,24.3,28.05,SSW,213,0.0,0.0,64,0.00,,,0.51,WUHU216DAVISWMX,2013-02-15 17:05:00,
2013-02-15 12:10:00,35.2,24.3,28.04,SSW,213,0.0,0.0,64,0.00,,,0.51,WUHU216DAVISWMX,2013-02-15 17:10:00,
2013-02-15 12:15:00,35.2,24.3,28.04,SSW,213,0.0,0.0,64,0.00,,,0.51,WUHU216DAVISWMX,2013-02-15 17:15:00,
2013-02-15 12:19:00,35.2,24.3,28.04,SW,236,0.0,0.0,64,0.00,,,0.51,WUHU216DAVISWMX,2013-02-15 17:19:00,
2013-02-15 12:20:00,35.2,24.3,28.04,SW,236,0.0,0.0,64,0.00,,,0.51,WUHU216DAVISWMX,2013-02-15 17:20:00,
2013-02-15 12:25:00,35.2,24.3,28.04,SW,236,0.0,0.0,64,0.00,,,0.51,WUHU216DAVISWMX,2013-02-15 17:25:00,
2013-02-15 12:50:00,35.5,23.4,28.03,WSW,243,14.0,14.0,61,0.00,,,0.51,WUHU216DAVISWMX,2013-02-15 17:50:00,
2013-02-15 12:55:00,35.7,23.2,28.03,SW,226,12.0,14.0,60,0.00,,,0.51,WUHU216DAVISWMX,2013-02-15 17:55:00,
2013-02-15 13:00:00,35.7,23.6,28.03,SSW,213,2.0,15.0,61,0.00,,,0.51,WUHU216DAVISWMX,2013-02-15 18:00:00,
2013-02-15 13:05:00,35.3,23.2,28.03,SSW,212,11.0,15.0,61,0.00,,,0.51,WUHU216DAVISWMX,2013-02-15 18:05:00,
2013-02-15 13:10:00,35.1,23.1,28.03,SW,214,9.0,15.0,61,0.00,,,0.51,WUHU216DAVISWMX,2013-02-15 18:10:00,
2013-02-15 13:15:00,35.1,23.4,28.02,SW,223,0.0,14.0,62,0.00,,,0.51,WUHU216DAVISWMX,2013-02-15 18:15:00,
2013-02-15 13:20:00,35.1,23.4,28.03,SW,223,0.0,10.0,62,0.00,,,0.51,WUHU216DAVISWMX,2013-02-15 18:20:00,
2013-02-15 13:25:00,35.1,23.4,28.03,SW,223,0.0,0.0,62,0.00,,,0.51,WUHU216DAVISWMX,2013-02-15 18:25:00,
2013-02-15 13:30:00,35.1,23.4,28.03,SW,223,0.0,0.0,62,0.00,,,0.51,WUHU216DAVISWMX,2013-02-15 18:30:00,
2013-02-15 13:35:00,35.1,23.4,28.03,SW,223,0.0,0.0,62,0.00,,,0.51,WUHU216DAVISWMX,2013-02-15 18:35:00,
2013-02-15 13:40:00,35.1,23.4,28.03,SW,223,0.0,0.0,62,0.00,,,0.51,WUHU216DAVISWMX,2013-02-15 18:40:00,
2013-02-15 13:45:00,35.1,23.4,28.03,SW,223,0.0,0.0,62,0.00,,,0.51,WUHU216DAVISWMX,2013-02-15 18:45:00,
2013-02-15 13:50:00,35.1,23.4,28.03,SW,223,0.0,0.0,62,0.00,,,0.51,WUHU216DAVISWMX,2013-02-15 18:50:00,
2013-02-15 14:23:00,30.2,25.9,28.03,SSW,212,8.0,8.0,84,0.00,,,0.51,WUHU216DAVISWMX,2013-02-15 19:23:00,
2013-02-15 14:28:00,30.2,26.5,28.03,SSW,208,5.0,8.0,86,0.00,,,0.51,WUHU216DAVISWMX,2013-02-15 19:28:00,
2013-02-15 14:33:00,30.0,26.0,28.04,SW,228,5.0,12.0,85,0.00,,,0.51,WUHU216DAVISWMX,2013-02-15 19:33:00,
2013-02-15 14:38:00,30.0,26.3,28.04,WSW,242,4.0,12.0,86,0.00,,,0.51,WUHU216DAVISWMX,2013-02-15 19:38:00,
2013-02-15 14:43:00,30.0,26.0,28.03,SSW,209,0.0,12.0,85,0.00,,,0.51,WUHU216DAVISWMX,2013-02-15 19:43:00,
2013-02-15 14:48:00,30.0,26.3,28.04,SSW,209,0.0,7.0,86,0.00,,,0.51,WUHU216DAVISWMX,2013-02-15 19:48:00,
2013-02-15 14:53:00,30.0,26.3,28.03,SSW,209,0.0,0.0,86,0.00,,,0.51,WUHU216DAVISWMX,2013-02-15 19:53:00,
2013-02-15 14:58:00,30.0,26.3,28.03,SSW,209,0.0,0.0,86,0.00,,,0.00,WUHU216DAVISWMX,2013-02-15 19:58:00,
2013-02-15 15:03:00,30.0,26.3,28.03,SSW,209,0.0,0.0,86,0.00,,,0.00,WUHU216DAVISWMX,2013-02-15 20:03:00,
2013-02-15 15:08:00,30.0,26.3,28.03,SSW,209,0.0,0.0,86,0.00,,,0.00,WUHU216DAVISWMX,2013-02-15 20:08:00,
2013-02-15 15:10:00,30.0,26.3,28.03,SSW,209,0.0,0.0,86,0.00,,,0.00,WUHU216DAVISWMX,2013-02-15 20:10:00,
2013-02-15 15:13:00,30.0,26.3,28.03,SSW,209,0.0,0.0,86,0.00,,,0.00,WUHU216DAVISWMX,2013-02-15 20:13:00,
2013-02-15 15:18:00,30.0,26.3,28.03,SSW,209,0.0,0.0,86,0.00,,,0.00,WUHU216DAVISWMX,2013-02-15 20:18:00,
2013-02-15 15:40:00,29.9,27.0,28.03,SW,229,7.0,7.0,89,0.00,,,0.01,WUHU216DAVISWMX,2013-02-15 20:40:00,
2013-02-15 15:45:00,30.3,27.4,28.02,SW,214,0.0,7.0,89,0.01,,,0.01,WUHU216DAVISWMX,2013-02-15 20:45:00,
2013-02-15 15:50:00,30.7,28.1,28.02,SSE,164,0.0,5.0,90,0.01,,,0.01,WUHU216DAVISWMX,2013-02-15 20:50:00,
2013-02-15 15:55:00,30.7,27.8,28.02,SSE,168,0.0,5.0,89,0.01,,,0.01,WUHU216DAVISWMX,2013-02-15 20:55:00,
2013-02-15 16:00:00,30.5,27.6,28.03,SW,222,4.0,9.0,89,0.01,,,0.01,WUHU216DAVISWMX,2013-02-15 21:00:00,
2013-02-15 16:05:00,30.4,27.5,28.03,SW,220,3.0,9.0,89,0.01,,,0.01,WUHU216DAVISWMX,2013-02-15 21:05:00,
2013-02-15 16:10:00,30.3,27.4,28.02,SW,224,5.0,9.0,89,0.01,,,0.01,WUHU216DAVISWMX,2013-02-15 21:10:00,
2013-02-15 16:15:00,30.3,27.4,28.02,SW,218,0.0,6.0,89,0.00,,,0.01,WUHU216DAVISWMX,2013-02-15 21:15:00,
2013-02-15 16:20:00,30.3,27.4,28.03,SW,220,0.0,6.0,89,0.00,,,0.01,WUHU216DAVISWMX,2013-02-15 21:20:00,
2013-02-15 16:25:00,30.4,27.5,28.03,SW,220,4.0,5.0,89,0.00,,,0.01,WUHU216DAVISWMX,2013-02-15 21:25:00,
2013-02-15 16:30:00,30.4,27.2,28.03,SSW,208,5.0,8.0,88,0.00,,,0.01,WUHU216DAVISWMX,2013-02-15 21:30:00,
2013-02-15 16:35:00,30.3,27.1,28.03,SSW,209,5.0,8.0,88,0.00,,,0.01,WUHU216DAVISWMX,2013-02-15 21:35:00,
2013-02-15 16:40:00,30.1,26.9,28.03,SSW,209,2.0,7.0,88,0.00,,,0.01,WUHU216DAVISWMX,2013-02-15 21:40:00,
2013-02-15 16:45:00,30.1,26.9,28.03,SSW,204,2.0,6.0,88,0.00,,,0.01,WUHU216DAVISWMX,2013-02-15 21:45:00,
2013-02-15 16:50:00,29.9,26.7,28.03,SSW,203,0.0,6.0,88,0.00,,,0.01,WUHU216DAVISWMX,2013-02-15 21:50:00,
2013-02-15 16:55:00,30.0,27.1,28.03,SSW,203,0.0,3.0,89,0.00,,,0.01,WUHU216DAVISWMX,2013-02-15 21:55:00,
2013-02-15 17:00:00,29.8,26.9,28.03,South,191,0.0,10.0,89,0.00,,,0.01,WUHU216DAVISWMX,2013-02-15 22:00:00,
2013-02-15 17:05:00,29.6,26.7,28.03,SW,214,5.0,10.0,89,0.00,,,0.01,WUHU216DAVISWMX,2013-02-15 22:05:00,
2013-02-15 17:10:00,29.4,26.5,28.03,SW,219,1.0,9.0,89,0.00,,,0.01,WUHU216DAVISWMX,2013-02-15 22:10:00,
2013-02-15 17:15:00,29.4,26.5,28.03,SSW,200,5.0,8.0,89,0.00,,,0.01,WUHU216DAVISWMX,2013-02-15 22:15:00,
2013-02-15 17:20:00,29.3,26.7,28.03,SSW,211,2.0,10.0,90,0.00,,,0.01,WUHU216DAVISWMX,2013-02-15 22:20:00,
2013-02-15 17:25:00,29.3,26.4,28.03,SW,214,7.0,10.0,89,0.00,,,0.01,WUHU216DAVISWMX,2013-02-15 22:25:00,
2013-02-15 17:30:00,29.3,26.4,28.03,SSW,206,2.0,7.0,89,0.00,,,0.01,WUHU216DAVISWMX,2013-02-15 22:30:00,
2013-02-15 17:35:00,29.1,26.2,28.03,SSW,201,4.0,14.0,89,0.00,,,0.01,WUHU216DAVISWMX,2013-02-15 22:35:00,
2013-02-15 17:40:00,29.0,26.1,28.03,SW,218,10.0,14.0,89,0.00,,,0.01,WUHU216DAVISWMX,2013-02-15 22:40:00,
2013-02-15 17:45:00,29.0,25.9,28.03,SSW,209,6.0,11.0,88,0.00,,,0.01,WUHU216DAVISWMX,2013-02-15 22:45:00,
2013-02-15 17:50:00,28.8,25.4,28.03,SSW,204,6.0,10.0,87,0.00,,,0.01,WUHU216DAVISWMX,2013-02-15 22:50:00,
2013-02-15 17:55:00,28.9,25.5,28.03,SSW,198,7.0,10.0,87,0.00,,,0.01,WUHU216DAVISWMX,2013-02-15 22:55:00,
2013-02-15 18:00:00,28.8,25.4,28.03,SSW,211,1.0,7.0,87,0.00,,,0.01,WUHU216DAVISWMX,2013-02-15 23:00:00,
2013-02-15 18:05:00,28.9,25.8,28.03,SSW,208,7.0,7.0,88,0.00,,,0.01,WUHU216DAVISWMX,2013-02-15 23:05:00,
2013-02-15 18:10:00,28.7,25.3,28.03,SSW,207,7.0,12.0,87,0.00,,,0.01,WUHU216DAVISWMX,2013-02-15 23:10:00,
2013-02-15 18:15:00,28.7,25.3,28.03,SSW,204,8.0,12.0,87,0.00,,,0.01,WUHU216DAVISWMX,2013-02-15 23:15:00,
2013-02-15 18:20:00,28.7,25.3,28.04,SSW,208,4.0,8.0,87,0.00,,,0.01,WUHU216DAVISWMX,2013-02-15 23:20:00,
2013-02-15 18:25:00,28.6,25.2,28.04,SSW,200,8.0,10.0,87,0.00,,,0.01,WUHU216DAVISWMX,2013-02-15 23:25:00,
2013-02-15 18:30:00,28.6,24.9,28.04,SSW,209,0.0,10.0,86,0.00,,,0.01,WUHU216DAVISWMX,2013-02-15 23:30:00,
2013-02-15 18:35:00,28.4,25.0,28.04,SSW,203,9.0,11.0,87,0.00,,,0.01,WUHU216DAVISWMX,2013-02-15 23:35:00,
2013-02-15 18:40:00,28.3,24.6,28.04,SSW,192,3.0,11.0,86,0.00,,,0.01,WUHU216DAVISWMX,2013-02-15 23:40:00,
2013-02-15 18:45:00,28.1,24.7,28.04,SSW,200,2.0,11.0,87,0.00,,,0.01,WUHU216DAVISWMX,2013-02-15 23:45:00,
2013-02-15 18:50:00,28.1,24.7,28.04,SSW,208,3.0,9.0,87,0.00,,,0.01,WUHU216DAVISWMX,2013-02-15 23:50:00,
2013-02-15 18:55:00,28.0,24.3,28.04,SSW,208,0.0,6.0,86,0.00,,,0.01,WUHU216DAVISWMX,2013-02-15 23:55:00,
2013-02-15 19:00:00,27.9,24.5,28.04,SSW,208,0.0,4.0,87,0.00,,,0.01,WUHU216DAVISWMX,2013-02-16 00:00:00,
2013-02-15 19:05:00,27.7,24.3,28.04,SSW,208,0.0,5.0,87,0.00,,,0.01,WUHU216DAVISWMX,2013-02-16 00:05:00,
2013-02-15 19:10:00,27.6,24.2,28.04,SSW,203,2.0,6.0,87,0.00,,,0.01,WUHU216DAVISWMX,2013-02-16 00:10:00,
2013-02-15 19:15:00,27.5,24.4,28.04,SSW,203,4.0,6.0,88,0.00,,,0.01,WUHU216DAVISWMX,2013-02-16 00:15:00,
2013-02-15 19:20:00,27.4,24.3,28.04,SSW,201,1.0,6.0,88,0.00,,,0.01,WUHU216DAVISWMX,2013-02-16 00:20:00,
2013-02-15 19:25:00,27.3,23.9,28.04,SSW,201,0.0,6.0,87,0.00,,,0.01,WUHU216DAVISWMX,2013-02-16 00:25:00,
2013-02-15 19:30:00,27.3,24.2,28.04,SSW,201,1.0,5.0,88,0.00,,,0.01,WUHU216DAVISWMX,2013-02-16 00:30:00,
2013-02-15 19:35:00,27.2,23.8,28.04,SSW,201,0.0,4.0,87,0.00,,,0.01,WUHU216DAVISWMX,2013-02-16 00:35:00,
2013-02-15 19:40:00,27.1,23.7,28.04,SSW,201,0.0,4.0,87,0.00,,,0.01,WUHU216DAVISWMX,2013-02-16 00:40:00,
2013-02-15 19:45:00,27.2,23.8,28.04,WSW,242,0.0,5.0,87,0.00,,,0.01,WUHU216DAVISWMX,2013-02-16 00:45:00,
2013-02-15 19:50:00,27.2,23.8,28.04,WSW,242,0.0,5.0,87,0.00,,,0.01,WUHU216DAVISWMX,2013-02-16 00:50:00,
2013-02-15 19:55:00,27.2,23.8,28.04,WSW,242,0.0,0.0,87,0.00,,,0.01,WUHU216DAVISWMX,2013-02-16 00:55:00,
2013-02-15 20:00:00,27.2,24.1,28.04,WSW,242,0.0,0.0,88,0.00,,,0.01,WUHU216DAVISWMX,2013-02-16 01:00:00,
2013-02-15 20:05:00,27.1,23.7,28.04,WSW,242,0.0,0.0,87,0.00,,,0.01,WUHU216DAVISWMX,2013-02-16 01:05:00,
2013-02-15 20:10:00,27.2,23.8,28.05,WSW,242,0.0,0.0,87,0.00,,,0.01,WUHU216DAVISWMX,2013-02-16 01:10:00,
2013-02-15 20:15:00,27.2,23.8,28.04,WSW,242,0.0,0.0,87,0.00,,,0.01,WUHU216DAVISWMX,2013-02-16 01:15:00,
2013-02-15 20:16:00,27.2,23.8,28.05,WSW,242,0.0,0.0,87,0.00,,,0.01,WUHU216DAVISWMX,2013-02-16 01:16:00,
2013-02-15 20:20:00,27.2,23.8,28.05,WSW,242,0.0,0.0,87,0.00,,,0.01,WUHU216DAVISWMX,2013-02-16 01:20:00,
2013-02-15 20:25:00,27.2,23.8,28.05,WSW,242,0.0,0.0,87,0.00,,,0.01,WUHU216DAVISWMX,2013-02-16 01:25:00,
2013-02-15 21:05:00,27.4,24.3,28.04,SSW,193,0.0,0.0,88,0.00,,,0.01,WUHU216DAVISWMX,2013-02-16 02:05:00,
2013-02-15 21:10:00,27.4,24.3,28.04,SSW,192,0.0,0.0,88,0.00,,,0.01,WUHU216DAVISWMX,2013-02-16 02:10:00,
2013-02-15 21:15:00,27.5,24.4,28.04,SSW,192,0.0,0.0,88,0.00,,,0.01,WUHU216DAVISWMX,2013-02-16 02:15:00,
2013-02-15 21:20:00,27.4,24.3,28.04,SSW,192,0.0,0.0,88,0.00,,,0.01,WUHU216DAVISWMX,2013-02-16 02:20:00,
2013-02-15 21:25:00,27.4,24.3,28.04,SSW,192,0.0,0.0,88,0.00,,,0.01,WUHU216DAVISWMX,2013-02-16 02:25:00,
2013-02-15 21:30:00,27.6,24.5,28.04,SSW,192,0.0,0.0,88,0.00,,,0.01,WUHU216DAVISWMX,2013-02-16 02:30:00,
2013-02-15 21:35:00,27.6,24.5,28.04,SSW,192,0.0,0.0,88,0.00,,,0.01,WUHU216DAVISWMX,2013-02-16 02:35:00,
2013-02-15 21:40:00,27.6,24.5,28.04,SSW,192,0.0,0.0,88,0.00,,,0.01,WUHU216DAVISWMX,2013-02-16 02:40:00,
2013-02-15 21:45:00,27.6,24.5,28.04,SSW,192,0.0,0.0,88,0.00,,,0.01,WUHU216DAVISWMX,2013-02-16 02:45:00,
2013-02-15 21:50:00,27.6,24.5,28.03,SSW,192,0.0,0.0,88,0.00,,,0.01,WUHU216DAVISWMX,2013-02-16 02:50:00,
2013-02-15 21:55:00,27.6,24.5,28.03,SSW,192,0.0,0.0,88,0.00,,,0.01,WUHU216DAVISWMX,2013-02-16 02:55:00,
2013-02-15 22:00:00,27.6,24.5,28.04,SSW,192,0.0,0.0,88,0.00,,,0.01,WUHU216DAVISWMX,2013-02-16 03:00:00,
2013-02-15 22:05:00,27.6,24.5,28.04,SSW,192,0.0,0.0,88,0.00,,,0.01,WUHU216DAVISWMX,2013-02-16 03:05:00,
2013-02-15 22:10:00,27.6,24.5,28.04,SSW,192,0.0,0.0,88,0.00,,,0.01,WUHU216DAVISWMX,2013-02-16 03:10:00,
2013-02-15 22:37:00,27.8,24.9,28.03,South,189,0.0,0.0,89,0.00,,,0.01,WUHU216DAVISWMX,2013-02-16 03:37:00,
2013-02-15 22:42:00,27.8,25.2,28.03,South,187,0.0,4.0,90,0.00,,,0.01,WUHU216DAVISWMX,2013-02-16 03:42:00,
2013-02-15 22:47:00,27.9,25.3,28.03,South,187,0.0,4.0,90,0.00,,,0.01,WUHU216DAVISWMX,2013-02-16 03:47:00,
2013-02-15 22:52:00,27.9,25.3,28.03,SSW,208,0.0,10.0,90,0.00,,,0.01,WUHU216DAVISWMX,2013-02-16 03:52:00,
2013-02-15 22:57:00,27.9,25.3,28.02,SSW,204,0.0,10.0,90,0.00,,,0.01,WUHU216DAVISWMX,2013-02-16 03:57:00,
2013-02-15 23:02:00,27.8,25.2,28.03,SSW,204,0.0,1.0,90,0.00,,,0.01,WUHU216DAVISWMX,2013-02-16 04:02:00,
2013-02-15 23:07:00,27.9,25.3,28.03,SSW,204,0.0,0.0,90,0.00,,,0.01,WUHU216DAVISWMX,2013-02-16 04:07:00,
2013-02-15 23:12:00,27.9,25.3,28.03,SSW,204,0.0,0.0,90,0.00,,,0.01,WUHU216DAVISWMX,2013-02-16 04:12:00,
2013-02-15 23:17:00,27.9,25.3,28.03,SSW,204,0.0,0.0,90,0.00,,,0.01,WUHU216DAVISWMX,2013-02-16 04:17:00,
2013-02-15 23:22:00,27.8,25.2,28.03,SSW,204,0.0,0.0,90,0.00,,,0.01,WUHU216DAVISWMX,2013-02-16 04:22:00,
2013-02-15 23:27:00,27.9,25.3,28.03,SSW,204,0.0,0.0,90,0.00,,,0.01,WUHU216DAVISWMX,2013-02-16 04:27:00,
2013-02-15 23:32:00,27.9,25.3,28.03,SSW,204,0.0,0.0,90,0.00,,,0.01,WUHU216DAVISWMX,2013-02-16 04:32:00,
2013-02-15 23:53:00,25.9,23.3,28.04,WSW,248,5.0,5.0,90,0.00,,,0.01,WUHU216DAVISWMX,2013-02-16 04:53:00,
2013-02-15 23:58:00,25.8,23.2,28.03,WSW,243,9.0,11.0,90,0.00,,,0.01,WUHU216DAVISWMX,2013-02-16 04:58:00,